Wilton, Wisconsin
Current Conditions -  °F | °C
As of 4:35 PM on Sunday 23 Nov 2014 (Local Time) from KCMY Reporting Station
Drizzle Drizzle  
Wind Chill: 49°   Ceiling: 1000
Heat Index: 49°   Visibility: 10mi
Dew Point: 48°   Wind: 0mph
Humidity: 98%   Direction: NA
Pressure: 29.38"   Gusts: NA
Location:  43.81°N, 90.53°W
Report Text: KCMY 232235Z AUTO 00000KT 10SM DZ BKN010 OVC050 09/09 A2938 RMK AO2 T00930090
Loading
Personal Weather Stations






























Interactive Weather Map New forecast layout! Learn more

10-Day Weather Forecast

Advertisements
Track Severe Weather on mobile